0,00 -
Pkt Einheit
Index Typ
0,00% %
0,00 abs
ISIN: US78378X1072 WKN: A0AET0 Börse: Commerzbank CFD Datum: -

S&P 500 Index

Name Kurs +/- abs. +/- % Zeit 1 Woche % 1 Monat % 3 Monate % 6 Monate % 1 Jahr % 10 Jahre %
3M Co. 155,850 -5,030 -3,13 23.08.19 -3,50 -12,21 -6,04 -25,56 -23,13 114,55
Abbott Laboratories 81,930 -2,440 -2,89 23.08.19 -3,36 -7,67 8,33 7,62 24,46 286,60
AbbVie Inc. 65,970 -1,550 -2,30 23.08.19 2,39 -2,60 -18,71 -17,56 -32,09
Abiomed Inc. 189,590 -5,850 -2,99 23.08.19 -1,77 -28,37 -27,81 -46,23 -49,70 2.226,26
Accenture PLC 192,810 -3,530 -1,80 23.08.19 -0,21 -0,85 8,16 19,39 16,71 443,74
Activision Blizzard Inc. 47,330 -1,750 -3,57 23.08.19 1,44 3,07 12,18 14,05 -33,50 287,63
Adobe Inc. 282,440 -5,250 -1,82 23.08.19 -1,74 -8,26 2,99 9,13 9,90 760,05
Advance Auto Parts Inc. 135,050 -2,450 -1,78 23.08.19 -1,13 -14,33 -15,49 -16,36 -17,28 212,76
Advanced Micro Devices Inc. 29,540 -2,360 -7,40 23.08.19 -5,26 -11,79 12,10 21,26 32,53 698,38
AES Corp., The 14,790 -0,410 -2,70 23.08.19 -2,70 -12,12 -11,91 -15,63 5,57 3,72
Affiliated Managers Group Inc. 74,640 -1,870 -2,44 23.08.19 -1,71 -17,13 -15,40 -31,60 -49,05 16,99
AFLAC Inc. 48,360 -1,150 -2,32 23.08.19 -8,15 -12,38 -6,13 -0,80 4,25 131,00
Agilent Technologies Inc. 69,550 -2,190 -3,05 23.08.19 -2,15 -0,49 2,73 -11,31 5,88 278,12
Air Products & Chemicals Inc. 220,640 -4,640 -2,06 23.08.19 -3,55 -3,59 8,05 22,50 34,19 187,89
Akamai Technologies Inc. 86,990 -1,730 -1,95 23.08.19 0,39 4,56 11,87 24,48 19,05 372,26
Alaska Air Group Inc. 57,930 -1,800 -3,01 23.08.19 -4,03 -11,01 -5,59 -7,16 -10,46
Albemarle Corp. 59,950 -3,270 -5,17 23.08.19 -4,98 -19,62 -9,63 -32,78 -36,07 86,47
Alexandria Real Est. Equ. Inc. 146,830 -2,580 -1,73 23.08.19 -0,86 3,12 1,93 7,39 16,05
Alexion Pharmaceuticals Inc. 115,330 -8,160 -6,61 23.08.19 4,04 -5,79 -7,98 -11,10 -1,26 413,72
Align Technology Inc. 175,040 -3,930 -2,20 23.08.19 -1,23 -35,87 -43,14 -31,08 -51,86 1.215,10
Allegion PLC 93,420 -2,270 -2,37 23.08.19 -2,11 -14,16 -5,73 4,15 8,07
Allergan PLC 158,960 -1,970 -1,22 23.08.19 0,45 -1,81 15,16 16,28 -14,86 186,78
Alliance Data Systems Corp. 130,580 -4,950 -3,65 23.08.19 -5,85 -15,80 -8,00 -24,98 -44,91 130,46
Alliant Energy Corp. 51,650 -0,530 -1,02 23.08.19 0,04 4,15 5,91 13,07
Allstate Corp., The 101,980 -2,520 -2,41 23.08.19 -1,20 0,46 6,25 7,84 2,85 256,20
Alphabet Inc. (Class A) 1.153,590 -37,930 -3,18 23.08.19 -2,16 0,48 0,72 3,32 -5,53 395,91
Alphabet Inc. (Class C) 1.151,290 -38,240 -3,21 23.08.19 -2,23 0,44 0,92 3,69 -4,49
Altria Group Inc. 46,410 -0,180 -0,39 23.08.19 -0,15 -7,25 -12,12 -9,88 -22,42 157,26
Amazon.com Inc. 1.750,770 -54,830 -3,04 23.08.19 -2,33 -12,22 -3,56 7,31 -7,99 1.959,73
AMCOR PLC 9,440 -0,100 -1,05 23.08.19 -4,84 -13,08
Ameren Corp. 75,330 -1,490 -1,94 23.08.19 -1,71 -1,18 -0,50 4,36 18,35 178,48
American Airlines Group Inc. 25,420 -1,110 -4,18 23.08.19 -1,43 -24,64 -13,83 -28,35 -34,54 144,89
American Electric Power Co.Inc 89,580 -1,390 -1,53 23.08.19 -0,72 0,08 1,59 9,62 25,53 184,47
American Express Co. 117,760 -4,510 -3,69 23.08.19 -5,51 -8,14 -0,57 9,61 11,76 258,48
American International Grp Inc 52,490 -1,260 -2,34 23.08.19 -3,35 -6,75 0,56 22,44 -0,23 59,79
American Tower Corp. 226,570 -1,940 -0,85 23.08.19 1,63 9,56 11,65 28,27 53,73 584,09
American Water Works Co. Inc. 122,810 -1,890 -1,52 23.08.19 -1,14 7,29 8,37 21,62 39,13 511,30
Ameriprise Financial Inc. 124,490 -4,090 -3,18 23.08.19 -1,46 -16,50 -13,76 -7,71 -10,43 317,47
AmerisourceBergen Corp. 83,540 -2,010 -2,35 23.08.19 -4,35 -2,65 3,85 -2,49 -5,37 296,86
AMETEK Inc. 83,620 -2,150 -2,51 23.08.19 -2,37 -6,88 -1,47 5,31 10,27 490,29
Amgen Inc. 199,080 -4,340 -2,13 23.08.19 -2,39 13,11 15,67 6,18 1,26 228,19
Amphenol Corp. 85,400 -2,450 -2,79 23.08.19 -1,40 -13,18 -4,57 -9,48 -8,66 412,14
Analog Devices Inc. 104,170 -4,460 -4,11 23.08.19 -5,74 -13,13 5,51 -1,63 6,96 266,54
Ansys Inc. 210,710 -6,390 -2,94 23.08.19 0,54 -1,20 16,99 20,08 19,94 486,77
Anthem Inc. 260,380 -0,680 -0,26 23.08.19 -5,50 -13,95 -6,24 -17,81 -1,48 376,54
AON PLC 189,120 -5,000 -2,58 23.08.19 -1,25 -2,87 6,10 9,92 32,10 353,85
Apache Corp. 20,690 -0,770 -3,59 23.08.19 -0,72 -14,89 -25,20 -38,18 -51,73 -76,72
Apartment Inv. & Managem. Co. 50,360 -0,370 -0,73 23.08.19 -0,59 1,25 -1,24 0,86 15,90 321,42
Apple Inc. 202,620 -9,840 -4,63 23.08.19 -1,88 -2,98 12,78 17,14 -5,97 737,91
Applied Materials Inc. 45,120 -1,910 -4,06 23.08.19 -3,22 -11,58 12,97 14,43 5,45 228,38
Aptiv PLC 79,880 -3,640 -4,36 23.08.19 -2,41 -2,82 17,96 -3,01 -10,35
Archer Daniels Midland Co. 37,430 -0,500 -1,32 23.08.19 -1,08 -7,67 -4,54 -11,91 -25,90 30,55
Arconic Inc. 24,310 -0,790 -3,15 23.08.19 -2,13 -3,38 9,46 32,99 14,51
Arista Networks Inc. 223,400 -3,880 -1,71 23.08.19 1,00 -19,16 -12,18 -18,75 -20,95
Assurant Inc. 119,430 -4,330 -3,50 23.08.19 -4,10 6,16 19,18 21,45 14,27 308,45
AT & T Inc. 34,820 -0,570 -1,61 23.08.19 -0,43 8,51 8,34 11,78 7,17 33,92
Atmos Energy Corp. 108,630 -2,570 -2,31 23.08.19 -1,64 0,93 5,10 9,20 17,92
Autodesk Inc. 144,080 -1,130 -0,78 23.08.19 -0,03 -15,12 -15,00 -10,79 5,70 487,84
Automatic Data Processing Inc. 164,800 -4,730 -2,79 23.08.19 -1,31 -1,85 2,28 7,59 14,96 400,19
AutoZone Inc. 1.065,280 -16,270 -1,50 23.08.19 -2,42 -9,05 2,94 16,85 38,10 595,13
Avalonbay Communities Inc. 206,160 -2,720 -1,30 23.08.19 0,16 -0,33 1,19 5,16 13,81 216,39
Avery Dennison Corp. 110,720 -4,230 -3,68 23.08.19 -2,86 -5,44 11,06 3,53 5,08 253,74
Baker Hughes a GE Co. 20,880 -0,550 -2,57 23.08.19 -0,85 -14,11 -9,45 -20,76 -35,38
Ball Corp. 78,200 -1,560 -1,96 23.08.19 -1,80 8,94 28,09 41,51 92,23 524,60
Bank of America Corp. 26,470 -0,720 -2,65 23.08.19 -2,07 -12,50 -4,65 -8,98 -14,17 51,60
Baxter International Inc. 85,030 -2,180 -2,50 23.08.19 -2,23 2,08 13,33 13,86 18,13 179,74
BB&T Corp. 45,250 -1,430 -3,06 23.08.19 -2,79 -11,24 -5,94 -12,12 -13,00 61,43
Becton, Dickinson & Co. 248,310 -6,870 -2,69 23.08.19 -0,01 -2,92 6,12 -0,54 -2,18 260,65
Berkshire Hathaway Inc. 197,160 -3,850 -1,92 23.08.19 -1,28 -4,50 -2,06 -2,35 -4,86 196,08
Best Buy Co. Inc. 66,210 -2,590 -3,76 23.08.19 1,11 -13,46 0,59 9,55 -19,84 76,61
Biogen Inc. 225,850 -6,210 -2,68 23.08.19 -2,47 -7,39 -1,42 -30,58 -33,94 351,97
Bk of New York MellonCorp.,The 41,020 -1,150 -2,73 23.08.19 -3,09 -12,20 -9,33 -22,92 -21,61 40,87
Blackrock Inc. 407,250 -11,750 -2,80 23.08.19 -2,91 -14,70 -6,14 -6,75 -13,44 96,27
Block H. & R. Inc. 26,710 -0,490 -1,80 23.08.19 -2,94 -3,82 -1,87 6,50 1,56 51,68
Boeing Co. 356,010 1,600 0,45 23.08.19 7,73 -4,57 1,56 -16,05 2,45 676,13
Booking Holdings Inc. 1.899,350 -53,120 -2,72 23.08.19 -1,20 -0,03 10,66 -0,61 0,28 1.136,88
BorgWarner Inc. 30,880 -0,920 -2,89 23.08.19 -3,50 -25,91 -12,94 -25,91 -29,59 103,36
Boston Properties Inc. 125,830 -2,100 -1,64 23.08.19 -1,86 -3,24 -4,37 -7,25 -2,16 111,84
Boston Scientific Corp. 41,170 -1,520 -3,56 23.08.19 -2,33 -3,99 8,94 1,60 19,85 262,09
Bristol-Myers Squibb Co. 46,580 -1,280 -2,67 23.08.19 -0,85 8,20 -1,52 -8,63 -22,48 106,38
Broadcom Inc. 272,240 -15,380 -5,35 23.08.19 -0,58 -9,49 4,67 -1,54 32,42 1.427,72
Broadridge Financial Solutions 127,460 -2,730 -2,10 23.08.19 -0,59 -5,00 3,68 26,40 -4,32
Brown-Forman Corp. Class B 57,440 -0,910 -1,56 23.08.19 -0,17 2,75 9,91 17,61 8,71 284,88
C.H. Robinson Worldwide Inc. 82,230 -1,490 -1,78 23.08.19 -1,87 -1,43 1,85 -10,56 -14,70 42,83
Cabot Oil & Gas Corp. 16,840 0,020 0,12 23.08.19 2,25 -24,38 -34,24 -30,59 -30,56 78,91
Cadence Design Systems Inc. 66,810 -3,000 -4,30 23.08.19 -3,62 -10,04 4,85 18,08 44,11 1.006,13
Campbell Soup Co. 42,680 -1,000 -2,29 23.08.19 0,09 2,92 11,99 30,00 5,10 37,15
Capital One Financial Corp. 83,110 -2,620 -3,06 23.08.19 -2,80 -11,90 -6,88 2,35 -16,51 127,82
Capri Holdings Ltd. 26,750 -1,260 -4,50 23.08.19 -5,28 -26,39 -32,24 -38,98 -63,97
Cardinal Health Inc. 42,790 -0,970 -2,22 23.08.19 -0,93 -3,63 -6,80 -22,06 -16,64 20,10
Carmax Inc. 80,830 -2,890 -3,45 23.08.19 -4,94 -6,27 5,27 33,52 7,73 371,59
Carnival Corp. 43,280 -1,810 -4,01 23.08.19 -3,67 -6,32 -16,16 -26,42 -29,05 40,16
Caterpillar Inc. 114,060 -3,830 -3,25 23.08.19 -2,04 -17,41 -6,71 -17,75 -16,62 141,14
Cboe Global Markets Inc. 119,850 -0,040 -0,03 23.08.19 -1,25 4,43 12,84 24,07
CBRE Group Inc. 49,260 -2,600 -5,01 23.08.19 -4,63 -6,28 4,03 -3,16 3,42 306,77
CBS Corp. Class B 41,410 -2,060 -4,74 23.08.19 -5,46 -17,31 -13,57 -19,89 -21,69 285,57
Celanese Corp. (Del.) 107,250 -6,490 -5,71 23.08.19 -2,77 -2,77 8,75 3,38 -7,05
Celgene Corp. 94,020 -1,690 -1,77 23.08.19 -0,76 4,68 -1,68 5,47 4,65 253,79
Centene Corp. 44,720 -0,830 -1,82 23.08.19 -6,85 -14,92 -19,31 -30,14 -38,04
CenterPoint Energy Inc. 27,420 -0,600 -2,14 23.08.19 -1,61 -4,43 -6,80 -12,68 -1,05 114,22
Zum Index